Time;durP1;ratioP1;P1;durP2;ratioP2;P2;SDS_P1;SDS_P2;PMS_P1;PMS_P2;Temp;Humidity;BMP_temperature;BMP_pressure;BME280_temperature;BME280_humidity;BME280_pressure;Samples;Min_cycle;Max_cycle;Signal;HPM_P1;HPM_P2
2024/02/20 00:03:38;;;;;;;5.80;3.00;;;11.30;42.10;;;;;;10441098;28;20265;-77
2024/02/20 00:08:42;;;;;;;5.43;2.83;;;11.20;42.40;;;;;;10447593;28;20344;-77
2024/02/20 00:13:45;;;;;;;4.57;2.67;;;11.20;42.30;;;;;;10445625;28;20229;-77
2024/02/20 00:18:50;;;;;;;3.77;2.60;;;11.20;42.40;;;;;;10442058;28;20231;-77
2024/02/20 00:23:53;;;;;;;5.00;2.53;;;11.20;42.80;;;;;;10440886;28;20636;-77
2024/02/20 00:28:56;;;;;;;2.80;2.47;;;11.20;43.20;;;;;;10444132;28;20223;-77
2024/02/20 00:34:02;;;;;;;3.03;2.50;;;11.20;42.50;;;;;;10441082;28;20225;-77
2024/02/20 00:39:07;;;;;;;3.17;2.40;;;11.20;42.60;;;;;;10434042;28;20221;-77
2024/02/20 00:44:12;;;;;;;2.97;2.50;;;11.20;42.40;;;;;;10443895;28;20401;-77
2024/02/20 00:49:17;;;;;;;3.50;2.57;;;11.20;42.70;;;;;;10432095;28;20232;-77
2024/02/20 00:54:22;;;;;;;3.47;2.80;;;11.20;42.60;;;;;;10442574;28;20262;-77
2024/02/20 00:59:26;;;;;;;6.00;3.10;;;11.10;42.40;;;;;;10442629;28;20798;-77
2024/02/20 01:04:31;;;;;;;3.13;2.70;;;11.10;42.50;;;;;;10440308;28;20236;-77
2024/02/20 01:09:34;;;;;;;2.77;2.47;;;11.00;42.90;;;;;;10433367;28;20295;-77
2024/02/20 01:14:41;;;;;;;3.00;2.70;;;11.10;42.70;;;;;;10444605;28;20286;-77
2024/02/20 01:19:45;;;;;;;3.20;2.60;;;11.00;42.70;;;;;;10440247;28;20240;-77
2024/02/20 01:24:49;;;;;;;3.47;2.93;;;11.10;43.10;;;;;;10442792;28;20228;-77
2024/02/20 01:29:52;;;;;;;3.47;2.33;;;11.00;42.80;;;;;;10438020;28;20363;-77
2024/02/20 01:34:56;;;;;;;3.83;2.33;;;11.00;42.70;;;;;;10439199;28;20221;-77
2024/02/20 01:39:59;;;;;;;3.67;2.50;;;11.00;43.00;;;;;;10440450;28;20240;-77
2024/02/20 01:45:03;;;;;;;2.43;2.23;;;11.10;42.70;;;;;;10437854;28;20734;-77
2024/02/20 01:50:09;;;;;;;2.33;2.13;;;11.10;42.70;;;;;;10436929;28;20252;-77
2024/02/20 01:55:14;;;;;;;3.90;2.40;;;11.10;43.70;;;;;;10442117;28;20738;-77
2024/02/20 02:00:18;;;;;;;2.40;2.20;;;11.10;42.70;;;;;;10438481;28;20262;-77
2024/02/20 02:05:23;;;;;;;3.43;2.33;;;11.00;42.60;;;;;;10441375;28;20238;-77
2024/02/20 02:10:26;;;;;;;2.30;2.10;;;11.10;42.90;;;;;;10435946;28;20625;-77
2024/02/20 02:15:30;;;;;;;2.07;1.87;;;11.10;42.60;;;;;;10440219;28;20305;-77
2024/02/20 02:20:34;;;;;;;1.93;1.83;;;11.10;42.60;;;;;;10440946;28;20621;-77
2024/02/20 02:25:37;;;;;;;2.30;2.10;;;11.10;42.80;;;;;;10437053;28;20229;-77
2024/02/20 02:30:42;;;;;;;3.10;2.10;;;11.10;42.70;;;;;;10439052;28;20559;-77
2024/02/20 02:35:45;;;;;;;2.70;1.97;;;11.00;43.00;;;;;;10434213;28;20233;-77
2024/02/20 02:40:48;;;;;;;2.37;1.73;;;11.00;43.00;;;;;;10442261;28;21182;-77
2024/02/20 02:45:53;;;;;;;3.77;1.93;;;11.00;42.90;;;;;;10440330;28;20256;-77
2024/02/20 02:50:56;;;;;;;2.67;2.00;;;11.00;43.30;;;;;;10439303;28;20225;-77
2024/02/20 02:56:00;;;;;;;2.43;1.80;;;11.00;43.00;;;;;;10436485;28;20229;-77
2024/02/20 03:01:05;;;;;;;2.20;2.00;;;11.00;43.20;;;;;;10438218;28;20221;-77
2024/02/20 03:06:09;;;;;;;2.77;2.10;;;11.00;43.70;;;;;;10443166;28;20364;-77
2024/02/20 03:11:13;;;;;;;3.17;2.03;;;11.00;43.20;;;;;;10443258;28;20260;-77
2024/02/20 03:16:17;;;;;;;4.27;1.97;;;11.00;43.20;;;;;;10443230;28;20609;-77
2024/02/20 03:21:21;;;;;;;3.87;2.20;;;11.10;43.40;;;;;;10444112;28;20282;-77
2024/02/20 03:26:24;;;;;;;3.53;2.20;;;11.10;43.00;;;;;;10444955;28;20224;-77
2024/02/20 03:31:29;;;;;;;2.50;2.17;;;11.10;43.00;;;;;;10442976;28;20261;-77
2024/02/20 03:36:32;;;;;;;3.33;2.40;;;11.20;43.10;;;;;;10443010;28;20700;-77
2024/02/20 03:41:36;;;;;;;2.30;2.10;;;11.10;43.00;;;;;;10438991;28;20311;-77
2024/02/20 03:46:41;;;;;;;2.77;2.47;;;11.10;42.90;;;;;;10439438;28;20314;-77
2024/02/20 03:51:46;;;;;;;2.47;2.13;;;11.10;43.30;;;;;;10438574;28;20229;-77
2024/02/20 03:56:49;;;;;;;2.60;2.20;;;11.10;43.10;;;;;;10444472;28;20274;-77
2024/02/20 04:01:53;;;;;;;2.53;2.33;;;11.00;43.10;;;;;;10441801;28;20223;-77
2024/02/20 04:06:56;;;;;;;3.17;2.17;;;11.00;43.30;;;;;;10442343;28;20978;-77
2024/02/20 04:12:00;;;;;;;2.40;2.20;;;11.00;43.20;;;;;;10440340;28;20282;-77
2024/02/20 04:17:05;;;;;;;2.90;2.10;;;11.00;43.20;;;;;;10445384;28;20750;-77
2024/02/20 04:22:08;;;;;;;2.57;2.37;;;10.90;43.50;;;;;;10438455;28;21393;-77
2024/02/20 04:27:11;;;;;;;2.70;2.50;;;10.90;43.40;;;;;;10442999;28;20238;-77
2024/02/20 04:32:15;;;;;;;3.20;2.20;;;10.90;43.40;;;;;;10440949;28;20229;-77
2024/02/20 04:37:19;;;;;;;1.80;1.70;;;10.90;43.70;;;;;;10444631;28;20240;-77
2024/02/20 04:42:23;;;;;;;2.10;1.90;;;11.00;43.40;;;;;;10441528;28;20271;-77
2024/02/20 04:47:30;;;;;;;4.27;3.70;;;11.00;43.30;;;;;;10436278;28;20229;-77
2024/02/20 04:52:33;;;;;;;9.87;6.30;;;11.00;43.40;;;;;;10440319;28;20281;-77
2024/02/20 04:57:37;;;;;;;7.43;5.63;;;11.10;43.20;;;;;;10432613;28;20228;-77
2024/02/20 05:02:42;;;;;;;3.47;3.03;;;11.00;43.10;;;;;;10431917;28;20226;-79
2024/02/20 05:07:46;;;;;;;2.20;2.00;;;11.10;43.30;;;;;;10433024;28;20236;-79
2024/02/20 05:12:49;;;;;;;1.83;1.73;;;11.00;42.90;;;;;;10428584;28;20343;-79
2024/02/20 05:17:54;;;;;;;2.00;1.90;;;11.00;42.90;;;;;;10436045;28;20221;-79
2024/02/20 05:22:59;;;;;;;2.37;1.77;;;11.00;42.90;;;;;;10434183;28;20243;-79
2024/02/20 05:28:03;;;;;;;4.40;2.00;;;11.00;42.90;;;;;;10442474;28;20260;-80
2024/02/20 05:33:10;;;;;;;2.40;2.20;;;11.00;42.90;;;;;;10443959;28;20601;-79
2024/02/20 05:38:14;;;;;;;2.40;2.20;;;11.00;43.00;;;;;;10431687;28;20243;-79
2024/02/20 05:43:17;;;;;;;2.40;2.20;;;11.00;42.70;;;;;;10433854;28;20221;-79
2024/02/20 05:48:23;;;;;;;3.33;2.07;;;10.90;42.70;;;;;;10426384;28;20229;-79
2024/02/20 05:53:26;;;;;;;2.90;2.00;;;10.90;43.10;;;;;;10434059;28;20241;-79
2024/02/20 05:58:31;;;;;;;2.47;2.27;;;10.80;42.70;;;;;;10433527;28;20241;-79
2024/02/20 06:03:41;;;;;;;2.43;2.23;;;10.80;42.90;;;;;;10426313;28;20316;-79
2024/02/20 06:08:45;;;;;;;3.30;2.30;;;10.60;43.20;;;;;;10430299;28;20244;-79
2024/02/20 06:13:48;;;;;;;4.10;2.80;;;10.70;42.90;;;;;;10431096;28;20256;-75
2024/02/20 06:18:54;;;;;;;2.30;2.10;;;10.80;43.00;;;;;;10432246;28;20966;-75
2024/02/20 06:23:57;;;;;;;3.17;2.30;;;10.70;43.50;;;;;;10431129;28;20242;-75
2024/02/20 06:29:01;;;;;;;2.93;2.50;;;10.70;43.10;;;;;;10429097;28;20237;-76
2024/02/20 06:34:09;;;;;;;3.90;2.70;;;10.70;43.20;;;;;;10424470;28;20312;-76
2024/02/20 06:39:12;;;;;;;4.23;3.83;;;10.60;43.30;;;;;;10443313;28;20383;-75
2024/02/20 06:44:16;;;;;;;4.13;3.03;;;10.60;43.00;;;;;;10439308;28;20605;-76
2024/02/20 06:49:20;;;;;;;3.80;3.50;;;10.60;43.00;;;;;;10437265;28;20250;-75
2024/02/20 06:54:24;;;;;;;3.60;3.30;;;10.50;43.10;;;;;;10433841;28;20668;-76
2024/02/20 06:59:28;;;;;;;4.37;3.93;;;10.50;43.20;;;;;;10443228;28;20258;-75
2024/02/20 07:04:32;;;;;;;4.80;3.50;;;10.50;43.30;;;;;;10435339;28;20233;-76
2024/02/20 07:09:36;;;;;;;3.43;3.13;;;10.50;43.70;;;;;;10441387;28;20313;-75
2024/02/20 07:14:39;;;;;;;5.90;3.60;;;10.50;43.70;;;;;;10444111;28;20238;-75
2024/02/20 07:19:44;;;;;;;4.60;4.20;;;10.50;43.80;;;;;;10439191;28;20244;-75
2024/02/20 07:24:48;;;;;;;5.80;5.20;;;10.50;44.20;;;;;;10438728;28;20224;-74
2024/02/20 07:29:51;;;;;;;3.47;3.17;;;10.60;44.00;;;;;;10440050;28;20247;-75
2024/02/20 07:34:56;;;;;;;3.27;2.80;;;10.60;43.90;;;;;;10436530;28;20229;-75
2024/02/20 07:40:00;;;;;;;2.90;2.60;;;10.60;43.80;;;;;;10439277;28;20282;-75
2024/02/20 07:45:03;;;;;;;2.90;2.70;;;10.60;43.50;;;;;;10436838;28;20259;-75
2024/02/20 07:50:12;;;;;;;2.57;2.37;;;10.60;43.30;;;;;;10434292;28;20287;-75
2024/02/20 07:55:17;;;;;;;2.67;2.10;;;10.60;43.60;;;;;;10432798;28;20249;-75
2024/02/20 08:00:21;;;;;;;3.13;2.13;;;10.60;43.30;;;;;;10438808;28;20221;-75
2024/02/20 08:05:27;;;;;;;3.03;2.77;;;10.60;43.50;;;;;;10435439;28;20719;-75
2024/02/20 08:10:30;;;;;;;3.17;2.83;;;10.60;43.50;;;;;;10440689;28;20253;-75
2024/02/20 08:15:34;;;;;;;2.90;2.47;;;10.60;43.40;;;;;;10435088;28;20619;-75
2024/02/20 08:20:38;;;;;;;2.67;2.47;;;10.60;43.50;;;;;;10437545;28;20235;-75
2024/02/20 08:25:42;;;;;;;2.40;2.20;;;10.60;43.70;;;;;;10436417;28;20225;-75
2024/02/20 08:30:46;;;;;;;2.30;2.10;;;10.60;43.50;;;;;;10436778;28;20225;-75
2024/02/20 08:35:50;;;;;;;2.93;2.30;;;10.70;43.50;;;;;;10440960;28;20705;-75
2024/02/20 08:40:53;;;;;;;4.93;2.53;;;10.70;43.60;;;;;;10440561;28;20230;-75
2024/02/20 08:45:57;;;;;;;4.50;2.80;;;10.70;43.80;;;;;;10435752;28;20345;-75
2024/02/20 08:51:03;;;;;;;5.07;2.90;;;10.80;43.80;;;;;;10431989;28;20309;-76
2024/02/20 08:56:06;;;;;;;4.10;2.97;;;10.80;43.70;;;;;;10438282;28;20700;-76
2024/02/20 09:01:10;;;;;;;8.20;2.90;;;10.90;43.80;;;;;;10439879;28;20224;-76
2024/02/20 09:06:15;;;;;;;5.40;2.63;;;10.90;43.40;;;;;;10437408;28;20291;-76
2024/02/20 09:11:21;;;;;;;5.37;3.00;;;11.00;43.50;;;;;;10437198;28;20225;-76
2024/02/20 09:16:24;;;;;;;4.97;2.70;;;11.00;43.50;;;;;;10437406;28;20256;-76
2024/02/20 09:21:29;;;;;;;5.40;3.00;;;11.00;43.30;;;;;;10437776;28;20244;-75
2024/02/20 09:26:33;;;;;;;6.17;3.07;;;11.00;42.90;;;;;;10431051;28;20231;-76
2024/02/20 09:31:36;;;;;;;7.40;2.83;;;11.00;42.80;;;;;;10437883;28;20229;-76
2024/02/20 09:36:42;;;;;;;3.10;1.97;;;11.00;42.80;;;;;;10436344;28;20241;-75
2024/02/20 09:41:47;;;;;;;6.83;2.60;;;11.00;42.70;;;;;;10432901;28;20216;-75
2024/02/20 09:46:54;;;;;;;4.97;2.50;;;10.90;42.70;;;;;;10433685;28;20241;-75
2024/02/20 09:52:00;;;;;;;4.83;2.63;;;10.90;43.10;;;;;;10433098;28;20699;-75
2024/02/20 09:57:04;;;;;;;6.10;2.60;;;10.80;43.40;;;;;;10437240;28;20392;-75
2024/02/20 10:02:12;;;;;;;4.53;2.90;;;10.90;43.30;;;;;;10434025;28;20706;-75
2024/02/20 10:07:20;;;;;;;7.13;2.87;;;10.90;43.00;;;;;;10435935;28;20232;-75
2024/02/20 10:12:24;;;;;;;4.47;2.80;;;10.90;43.00;;;;;;10433905;28;20240;-75
2024/02/20 10:17:28;;;;;;;9.20;3.00;;;10.90;43.10;;;;;;10428230;28;20678;-75
2024/02/20 10:22:33;;;;;;;6.63;3.50;;;11.00;43.30;;;;;;10441110;28;20233;-75
2024/02/20 10:27:37;;;;;;;8.10;3.50;;;11.10;43.00;;;;;;10434573;28;21182;-75
2024/02/20 10:32:40;;;;;;;8.00;3.70;;;11.10;42.60;;;;;;10430621;28;20233;-75
2024/02/20 10:37:45;;;;;;;8.77;3.87;;;11.10;42.30;;;;;;10430995;28;20266;-76
2024/02/20 10:42:49;;;;;;;6.87;3.40;;;11.10;42.30;;;;;;10428969;28;20596;-76
2024/02/20 10:47:55;;;;;;;8.00;2.90;;;11.20;42.80;;;;;;10437270;28;20229;-76
2024/02/20 10:53:01;;;;;;;4.63;2.87;;;11.20;41.60;;;;;;10435631;28;20266;-76
2024/02/20 10:58:15;;;;;;;6.77;2.80;;;11.20;41.50;;;;;;10435409;28;20233;-75
2024/02/20 11:03:19;;;;;;;6.50;2.53;;;11.20;41.50;;;;;;10434729;28;20253;-76
2024/02/20 11:08:27;;;;;;;4.23;2.00;;;11.20;41.70;;;;;;10435418;28;20771;-76
2024/02/20 11:13:31;;;;;;;3.83;1.90;;;11.20;41.00;;;;;;10431206;28;20233;-76
2024/02/20 11:18:34;;;;;;;5.57;2.53;;;11.20;41.00;;;;;;10432996;28;20232;-75
2024/02/20 11:23:40;;;;;;;6.80;3.03;;;11.10;40.90;;;;;;10435099;28;20232;-75
2024/02/20 11:28:43;;;;;;;6.93;3.50;;;11.00;40.80;;;;;;10438193;28;20810;-76
2024/02/20 11:33:47;;;;;;;8.43;3.37;;;11.00;41.60;;;;;;10439043;28;20731;-75
2024/02/20 11:39:00;;;;;;;9.07;3.60;;;11.00;41.50;;;;;;10431952;28;21198;-75
2024/02/20 11:44:05;;;;;;;8.33;3.50;;;11.00;41.30;;;;;;10437298;28;20221;-75
2024/02/20 11:49:08;;;;;;;7.90;3.80;;;11.10;41.50;;;;;;10438360;28;20221;-75
2024/02/20 11:54:13;;;;;;;8.40;3.40;;;11.10;41.20;;;;;;10442617;28;20302;-75
2024/02/20 11:59:17;;;;;;;11.47;5.07;;;11.20;41.70;;;;;;10437779;28;20595;-75
2024/02/20 12:04:27;;;;;;;10.40;3.87;;;11.20;41.10;;;;;;10438092;28;20221;-75
2024/02/20 12:09:32;;;;;;;6.57;3.10;;;11.30;41.10;;;;;;10433199;28;20233;-76
2024/02/20 12:14:35;;;;;;;9.57;3.30;;;11.40;41.00;;;;;;10426452;28;20236;-76
2024/02/20 12:19:39;;;;;;;8.03;3.20;;;11.50;41.30;;;;;;10425458;28;20256;-76
2024/02/20 12:24:44;;;;;;;7.47;3.13;;;11.50;41.20;;;;;;10429959;28;20236;-76
2024/02/20 12:29:47;;;;;;;8.57;2.90;;;11.50;40.20;;;;;;10428099;28;20336;-76
2024/02/20 12:34:50;;;;;;;8.23;2.80;;;11.50;40.60;;;;;;10424871;28;20234;-76
2024/02/20 12:39:56;;;;;;;5.20;2.20;;;11.60;40.40;;;;;;10429438;28;20236;-76
2024/02/20 12:44:59;;;;;;;3.87;2.07;;;11.60;39.10;;;;;;10429039;28;20312;-76
2024/02/20 12:50:02;;;;;;;3.30;1.90;;;11.70;39.20;;;;;;10427934;28;20221;-76
2024/02/20 12:55:08;;;;;;;3.80;1.87;;;11.80;38.80;;;;;;10430943;28;20937;-76
2024/02/20 13:00:12;;;;;;;3.87;1.80;;;11.80;37.90;;;;;;10426614;28;20225;-76
2024/02/20 13:05:15;;;;;;;4.83;1.80;;;11.90;38.10;;;;;;10431270;28;20248;-75
2024/02/20 13:10:21;;;;;;;4.20;1.80;;;11.90;38.40;;;;;;10431730;28;20231;-76
2024/02/20 13:15:24;;;;;;;5.23;1.60;;;12.00;37.20;;;;;;10419235;28;20236;-78
2024/02/20 13:20:30;;;;;;;3.77;1.70;;;12.00;38.00;;;;;;10418685;28;20243;-78
2024/02/20 13:25:35;;;;;;;3.93;1.97;;;12.10;37.70;;;;;;10422030;28;20588;-77
2024/02/20 13:30:38;;;;;;;4.20;1.80;;;12.10;37.30;;;;;;10412504;28;20608;-77
2024/02/20 13:35:42;;;;;;;5.00;1.70;;;12.20;37.80;;;;;;10418156;28;20244;-77
2024/02/20 13:40:47;;;;;;;2.87;1.70;;;12.20;37.90;;;;;;10417319;28;20776;-75
2024/02/20 13:45:54;;;;;;;3.40;1.50;;;12.30;37.30;;;;;;10418679;28;20965;-78
2024/02/20 13:51:01;;;;;;;3.13;1.70;;;12.30;35.90;;;;;;10418592;28;20239;-77
2024/02/20 13:56:06;;;;;;;6.53;1.70;;;12.40;36.50;;;;;;10417515;28;20229;-77
2024/02/20 14:01:09;;;;;;;4.43;1.57;;;12.40;36.00;;;;;;10416892;28;20233;-76
2024/02/20 14:06:13;;;;;;;5.10;1.80;;;12.50;36.60;;;;;;10410788;28;20246;-76
2024/02/20 14:11:18;;;;;;;5.90;1.60;;;12.60;36.70;;;;;;10416105;28;20300;-76
2024/02/20 14:16:21;;;;;;;7.73;1.70;;;12.70;35.70;;;;;;10429808;28;20241;-75
2024/02/20 14:21:25;;;;;;;7.07;1.90;;;12.70;36.30;;;;;;10433801;28;20230;-75
2024/02/20 14:26:30;;;;;;;5.67;2.20;;;12.80;36.60;;;;;;10430784;28;21250;-75
2024/02/20 14:31:33;;;;;;;6.03;2.20;;;12.80;35.50;;;;;;10435962;28;20213;-74
2024/02/20 14:36:36;;;;;;;5.03;1.77;;;12.80;35.60;;;;;;10422124;28;20244;-73
2024/02/20 14:41:42;;;;;;;5.33;1.80;;;12.80;35.70;;;;;;10426044;28;20419;-74
2024/02/20 14:46:45;;;;;;;5.73;2.00;;;12.70;35.00;;;;;;10418636;28;20247;-75
2024/02/20 14:51:49;;;;;;;6.90;2.40;;;12.70;35.90;;;;;;10425850;28;20252;-75
2024/02/20 14:56:53;;;;;;;6.43;2.00;;;12.70;36.30;;;;;;10432864;28;20320;-75
2024/02/20 15:01:58;;;;;;;7.50;2.10;;;12.60;35.80;;;;;;10437415;28;20325;-75
2024/02/20 15:07:02;;;;;;;4.90;1.87;;;12.60;36.30;;;;;;10440964;28;20573;-73
2024/02/20 15:12:17;;;;;;;4.67;1.90;;;12.60;36.20;;;;;;10438755;28;20236;-74
2024/02/20 15:17:21;;;;;;;4.87;2.07;;;12.60;34.80;;;;;;10447621;28;20256;-74
2024/02/20 15:22:24;;;;;;;5.57;2.30;;;12.50;35.70;;;;;;10433503;28;20779;-74
2024/02/20 15:27:29;;;;;;;4.13;1.80;;;12.50;35.60;;;;;;10444355;28;20280;-74
2024/02/20 15:32:32;;;;;;;5.47;2.17;;;12.50;35.30;;;;;;10440331;28;20274;-74
2024/02/20 15:37:37;;;;;;;5.20;2.10;;;12.50;36.10;;;;;;10447286;28;20253;-74
2024/02/20 15:42:44;;;;;;;6.00;2.00;;;12.50;36.10;;;;;;10439495;28;20224;-74
2024/02/20 15:47:47;;;;;;;6.07;2.03;;;12.40;35.70;;;;;;10441624;28;20312;-74
2024/02/20 15:52:51;;;;;;;4.37;1.77;;;12.40;36.00;;;;;;10438946;28;20806;-75
2024/02/20 15:57:55;;;;;;;3.53;1.83;;;12.40;36.00;;;;;;10441145;28;20648;-75
2024/02/20 16:03:00;;;;;;;6.87;2.60;;;12.30;35.60;;;;;;10437663;28;20251;-75
2024/02/20 16:08:07;;;;;;;9.10;2.70;;;12.30;36.00;;;;;;10435391;28;20252;-75
2024/02/20 16:13:14;;;;;;;6.23;3.50;;;12.30;36.10;;;;;;10434390;28;20243;-75
2024/02/20 16:18:18;;;;;;;6.23;2.40;;;12.20;35.80;;;;;;10433596;28;20699;-75
2024/02/20 16:23:21;;;;;;;3.87;1.90;;;12.20;36.10;;;;;;10432645;28;20234;-75
2024/02/20 16:28:26;;;;;;;5.43;1.83;;;12.20;36.30;;;;;;10436551;28;20239;-74
2024/02/20 16:33:29;;;;;;;3.90;2.53;;;12.20;35.80;;;;;;10436594;28;20225;-74
2024/02/20 16:38:33;;;;;;;5.13;3.23;;;12.20;36.10;;;;;;10437907;28;20221;-76
2024/02/20 16:43:39;;;;;;;6.43;2.90;;;12.10;36.00;;;;;;10447465;28;20229;-75
2024/02/20 16:48:44;;;;;;;5.77;3.70;;;12.10;35.90;;;;;;10438978;28;20234;-78
2024/02/20 16:53:47;;;;;;;8.53;6.50;;;12.00;36.10;;;;;;10445357;28;20228;-78
2024/02/20 16:58:52;;;;;;;14.40;8.53;;;12.00;36.30;;;;;;10449808;28;20807;-78
2024/02/20 17:03:56;;;;;;;20.07;16.17;;;12.00;36.00;;;;;;10454149;28;20221;-78
2024/02/20 17:08:59;;;;;;;21.57;19.40;;;12.00;36.30;;;;;;10458433;28;20747;-78
2024/02/20 17:14:03;;;;;;;10.83;9.27;;;11.90;36.10;;;;;;10451976;28;20287;-78
2024/02/20 17:19:07;;;;;;;8.20;6.50;;;11.80;36.00;;;;;;10452957;28;20304;-78
2024/02/20 17:24:11;;;;;;;16.20;14.37;;;11.70;36.40;;;;;;10448358;28;20668;-78
2024/02/20 17:29:15;;;;;;;16.30;10.60;;;11.70;36.40;;;;;;10448641;28;20230;-78
2024/02/20 17:34:19;;;;;;;12.13;10.37;;;11.70;36.90;;;;;;10457087;28;20259;-78
2024/02/20 17:39:22;;;;;;;11.87;8.90;;;11.70;36.40;;;;;;10450372;28;20241;-79
2024/02/20 17:44:26;;;;;;;9.53;6.83;;;11.60;36.40;;;;;;10449684;28;20241;-79
2024/02/20 17:49:30;;;;;;;6.87;5.20;;;11.60;36.50;;;;;;10447754;28;20236;-78
2024/02/20 17:54:33;;;;;;;7.03;5.00;;;11.60;36.40;;;;;;10450794;28;20239;-79
2024/02/20 17:59:38;;;;;;;7.67;5.17;;;11.70;36.90;;;;;;10456113;28;20248;-79
2024/02/20 18:04:41;;;;;;;5.83;4.27;;;11.60;35.80;;;;;;10451551;28;20304;-79
2024/02/20 18:09:44;;;;;;;7.40;5.00;;;11.50;36.00;;;;;;10447406;28;20251;-79
2024/02/20 18:14:49;;;;;;;8.37;4.30;;;11.30;36.10;;;;;;10449671;28;20248;-80
2024/02/20 18:19:52;;;;;;;7.67;3.50;;;11.20;35.90;;;;;;10452662;28;20227;-80
2024/02/20 18:24:55;;;;;;;7.90;4.70;;;11.10;36.20;;;;;;10447006;28;20224;-80
2024/02/20 18:30:00;;;;;;;6.37;4.53;;;11.00;36.30;;;;;;10454892;28;20247;-80
2024/02/20 18:35:04;;;;;;;7.07;3.67;;;10.80;36.10;;;;;;10456953;28;20241;-79
2024/02/20 18:40:08;;;;;;;6.00;3.53;;;10.80;36.40;;;;;;10457591;28;20239;-79
2024/02/20 18:45:13;;;;;;;5.93;3.70;;;10.70;36.40;;;;;;10462678;28;20305;-79
2024/02/20 18:50:16;;;;;;;6.63;4.33;;;10.60;36.40;;;;;;10457581;28;20692;-79
2024/02/20 18:55:20;;;;;;;5.90;4.43;;;10.60;36.70;;;;;;10454082;28;20316;-79
2024/02/20 19:00:24;;;;;;;6.20;3.53;;;10.50;36.60;;;;;;10459848;28;20314;-79
2024/02/20 19:05:28;;;;;;;16.60;9.97;;;10.50;36.50;;;;;;10461041;28;20233;-79
2024/02/20 19:10:31;;;;;;;6.73;4.63;;;10.50;36.70;;;;;;10456687;28;20335;-79
2024/02/20 19:15:36;;;;;;;6.77;3.80;;;10.50;36.80;;;;;;10454955;28;20233;-79
2024/02/20 19:20:39;;;;;;;7.50;3.80;;;10.50;36.80;;;;;;10456289;28;20229;-79
2024/02/20 19:25:42;;;;;;;6.87;4.30;;;10.50;37.20;;;;;;10456611;28;20229;-80
2024/02/20 19:30:47;;;;;;;6.70;4.60;;;10.60;36.80;;;;;;10434406;28;20846;-75
2024/02/20 19:35:51;;;;;;;6.03;4.37;;;10.50;36.60;;;;;;10441743;28;20316;-78
2024/02/20 19:40:54;;;;;;;7.77;4.83;;;10.50;36.80;;;;;;10460371;28;20260;-78
2024/02/20 19:45:59;;;;;;;7.53;4.90;;;10.40;36.80;;;;;;10442648;28;20417;-77
2024/02/20 19:51:03;;;;;;;9.13;5.07;;;10.40;36.80;;;;;;10439154;28;20228;-77
2024/02/20 19:56:07;;;;;;;9.00;5.87;;;10.30;36.70;;;;;;10455270;28;20776;-76
2024/02/20 20:01:12;;;;;;;14.53;9.03;;;10.20;36.80;;;;;;10455366;28;20261;-76
2024/02/20 20:06:17;;;;;;;13.50;7.50;;;10.20;37.00;;;;;;10435702;28;20256;-75
2024/02/20 20:11:20;;;;;;;10.80;6.63;;;10.10;37.00;;;;;;10440041;28;20225;-75
2024/02/20 20:16:25;;;;;;;12.00;5.53;;;10.00;37.10;;;;;;10447763;28;20302;-76
2024/02/20 20:21:28;;;;;;;8.00;4.87;;;10.00;37.30;;;;;;10448079;28;20291;-77
2024/02/20 20:26:32;;;;;;;9.43;4.37;;;9.90;39.10;;;;;;10444504;28;20316;-78
2024/02/20 20:31:36;;;;;;;6.30;3.93;;;9.80;38.50;;;;;;10440167;28;20291;-75
2024/02/20 20:36:43;;;;;;;5.67;3.60;;;9.80;38.50;;;;;;10438145;28;20306;-74
2024/02/20 20:41:47;;;;;;;9.30;4.80;;;9.80;38.70;;;;;;10447830;28;20225;-73
2024/02/20 20:46:51;;;;;;;9.33;6.07;;;9.80;38.70;;;;;;10447319;28;20237;-74
2024/02/20 20:51:55;;;;;;;9.00;5.80;;;9.70;38.70;;;;;;10446300;28;20780;-73
2024/02/20 20:56:59;;;;;;;10.20;5.83;;;9.70;38.70;;;;;;10446047;28;20240;-73
2024/02/20 21:02:04;;;;;;;9.23;5.50;;;9.70;38.90;;;;;;10448263;28;20298;-74
2024/02/20 21:07:08;;;;;;;8.10;5.37;;;9.60;38.90;;;;;;10447987;28;20239;-74
2024/02/20 21:12:11;;;;;;;8.27;4.83;;;9.60;38.90;;;;;;10447161;28;20236;-73
2024/02/20 21:17:16;;;;;;;8.30;4.77;;;9.60;39.10;;;;;;10447151;28;20331;-73
2024/02/20 21:22:19;;;;;;;6.73;4.33;;;9.60;39.10;;;;;;10447299;28;20698;-73
2024/02/20 21:27:22;;;;;;;7.33;4.10;;;9.60;39.10;;;;;;10445857;28;20905;-73
2024/02/20 21:32:27;;;;;;;10.33;4.87;;;9.60;39.20;;;;;;10419087;28;20691;-74
2024/02/20 21:37:32;;;;;;;8.23;4.17;;;9.60;39.20;;;;;;10444526;28;20250;-74
2024/02/20 21:42:36;;;;;;;5.03;3.37;;;9.70;39.30;;;;;;10445414;28;20775;-74
2024/02/20 21:47:40;;;;;;;7.13;3.90;;;9.70;39.30;;;;;;10446862;28;20235;-74
2024/02/20 21:52:44;;;;;;;7.20;4.30;;;9.80;39.40;;;;;;10446849;28;20241;-74
2024/02/20 21:57:47;;;;;;;6.83;4.13;;;9.80;39.20;;;;;;10446675;28;20749;-74
2024/02/20 22:02:53;;;;;;;7.03;3.50;;;9.80;39.20;;;;;;10446569;28;20260;-74
2024/02/20 22:07:56;;;;;;;5.30;2.80;;;9.80;39.40;;;;;;10446541;28;20323;-74
2024/02/20 22:12:59;;;;;;;6.40;3.30;;;9.90;39.20;;;;;;10437309;28;20931;-74
2024/02/20 22:18:05;;;;;;;4.90;2.77;;;9.90;39.20;;;;;;10444650;28;20723;-74
2024/02/20 22:23:08;;;;;;;8.07;2.93;;;10.00;38.20;;;;;;10446328;28;20221;-74
2024/02/20 22:28:11;;;;;;;4.70;2.50;;;10.00;38.10;;;;;;10446004;28;20236;-74
2024/02/20 22:33:16;;;;;;;4.77;2.83;;;10.10;38.00;;;;;;10445848;28;20239;-74
2024/02/20 22:38:19;;;;;;;6.43;2.80;;;10.10;37.90;;;;;;10445494;28;20229;-74
2024/02/20 22:43:22;;;;;;;5.63;2.90;;;10.20;38.00;;;;;;10445697;28;20237;-74
2024/02/20 22:48:27;;;;;;;8.30;2.90;;;10.10;37.90;;;;;;10445570;28;20286;-74
2024/02/20 22:53:31;;;;;;;6.40;3.30;;;10.20;37.90;;;;;;10437975;28;20798;-74
2024/02/20 22:58:34;;;;;;;6.13;2.60;;;10.20;37.90;;;;;;10444659;28;20312;-74
2024/02/20 23:03:39;;;;;;;5.60;2.83;;;10.20;37.90;;;;;;10444964;28;20246;-74
2024/02/20 23:08:42;;;;;;;6.77;3.17;;;10.20;37.70;;;;;;10433056;28;20280;-74
2024/02/20 23:13:45;;;;;;;8.07;4.00;;;10.20;37.90;;;;;;10444483;28;20236;-74
2024/02/20 23:18:50;;;;;;;7.03;4.07;;;10.20;37.80;;;;;;10445854;28;20394;-74
2024/02/20 23:23:53;;;;;;;8.53;3.43;;;10.10;37.90;;;;;;10444122;28;20316;-74
2024/02/20 23:28:57;;;;;;;6.27;3.67;;;10.00;38.00;;;;;;10452386;28;20295;-74
2024/02/20 23:34:03;;;;;;;6.13;3.33;;;9.90;39.10;;;;;;10452058;28;20237;-74
2024/02/20 23:39:06;;;;;;;5.43;2.83;;;9.80;39.00;;;;;;10451544;28;20256;-74
2024/02/20 23:44:10;;;;;;;4.57;2.60;;;9.80;39.10;;;;;;10450308;28;20243;-74
2024/02/20 23:49:14;;;;;;;4.67;2.20;;;9.80;39.20;;;;;;10451664;28;20290;-74
2024/02/20 23:54:18;;;;;;;7.53;3.23;;;9.80;39.30;;;;;;10451443;28;20708;-74
2024/02/20 23:59:21;;;;;;;6.60;3.73;;;9.90;39.40;;;;;;10451060;28;20224;-74
